createdAt,value
2022-10-05T00:02:22.632Z,10.47
2022-10-05T00:07:46.589Z,10.39
2022-10-05T00:13:11.577Z,10.34
2022-10-05T00:18:38.762Z,10.27
2022-10-05T00:24:07.639Z,10.27
2022-10-05T00:29:37.597Z,10.22
2022-10-05T00:35:06.614Z,10.18
2022-10-05T00:40:41.605Z,10.10
2022-10-05T00:46:14.696Z,10.06
2022-10-05T00:51:45.632Z,10.05
2022-10-05T00:57:25.664Z,10.03
2022-10-05T01:02:59.629Z,10.10
2022-10-05T01:08:38.623Z,10.14
2022-10-05T01:14:12.633Z,10.24
2022-10-05T01:20:01.628Z,10.27
2022-10-05T01:25:38.651Z,10.29
2022-10-05T01:31:15.719Z,10.30
2022-10-05T01:36:47.967Z,10.26
2022-10-05T01:42:18.643Z,10.28
2022-10-05T01:47:53.662Z,10.28
2022-10-05T01:53:36.632Z,10.25
2022-10-05T01:59:09.646Z,10.25
2022-10-05T02:05:01.580Z,10.23
2022-10-05T02:10:33.643Z,10.24
2022-10-05T02:16:02.726Z,10.23
2022-10-05T02:21:30.683Z,10.16
2022-10-05T02:26:57.697Z,10.11
2022-10-05T02:32:30.670Z,10.05
2022-10-05T02:38:05.655Z,9.98
2022-10-05T02:43:40.686Z,9.84
2022-10-05T02:49:21.673Z,9.81
2022-10-05T02:55:07.692Z,9.81
2022-10-05T03:00:34.702Z,9.75
2022-10-05T03:06:03.705Z,9.74
2022-10-05T03:11:44.687Z,9.65
2022-10-05T03:17:21.697Z,9.59
2022-10-05T03:22:57.675Z,9.46
2022-10-05T03:28:35.738Z,9.37
2022-10-05T03:34:08.726Z,9.26
2022-10-05T03:39:41.742Z,9.13
2022-10-05T03:45:18.749Z,9.02
2022-10-05T03:50:55.830Z,9.02
2022-10-05T03:56:25.782Z,9.06
2022-10-05T04:01:58.751Z,9.10
2022-10-05T04:07:36.741Z,9.08
2022-10-05T04:13:07.802Z,9.10
2022-10-05T04:18:41.838Z,9.08
2022-10-05T04:24:14.735Z,9.05
2022-10-05T04:29:44.737Z,9.04
2022-10-05T04:35:23.737Z,9.05
2022-10-05T04:41:03.849Z,9.17
2022-10-05T04:46:46.070Z,9.15
2022-10-05T04:52:17.745Z,9.15
2022-10-05T04:57:53.766Z,9.09
2022-10-05T05:03:36.822Z,9.09
2022-10-05T05:09:30.774Z,9.07
2022-10-05T05:15:12.795Z,9.06
2022-10-05T05:20:42.753Z,9.01
2022-10-05T05:26:45.445Z,8.93
2022-10-05T05:32:16.751Z,8.86
2022-10-05T05:37:47.786Z,8.84
2022-10-05T05:43:32.755Z,8.78
2022-10-05T05:48:59.801Z,8.67
2022-10-05T05:54:37.790Z,8.66
2022-10-05T06:00:14.799Z,8.66
2022-10-05T06:05:47.773Z,8.75
2022-10-05T06:11:19.790Z,8.88
2022-10-05T06:16:58.801Z,9.18
2022-10-05T06:22:30.813Z,9.43
2022-10-05T06:28:15.854Z,9.58
2022-10-05T06:33:55.815Z,9.72
2022-10-05T06:39:42.793Z,9.86
2022-10-05T06:45:15.788Z,10.08
2022-10-05T06:50:58.836Z,10.27
2022-10-05T06:56:40.822Z,10.47
2022-10-05T07:02:12.908Z,10.66
2022-10-05T07:07:43.826Z,10.83
2022-10-05T07:13:29.802Z,11.03
2022-10-05T07:19:08.875Z,11.28
2022-10-05T07:24:46.816Z,11.44
2022-10-05T07:30:14.839Z,11.63
2022-10-05T07:36:02.812Z,11.76
2022-10-05T07:41:38.808Z,11.88
2022-10-05T07:47:10.991Z,12.04
2022-10-05T07:52:45.855Z,12.14
2022-10-05T07:58:21.838Z,12.24
2022-10-05T08:03:56.814Z,12.33
2022-10-05T08:09:30.881Z,12.40
2022-10-05T08:15:05.935Z,12.46
2022-10-05T08:20:43.839Z,12.58
2022-10-05T08:26:22.871Z,12.73
2022-10-05T08:31:54.915Z,12.89
2022-10-05T08:37:26.850Z,13.01
2022-10-05T08:43:13.943Z,13.11
2022-10-05T08:49:11.867Z,13.30
2022-10-05T08:54:55.873Z,13.53
2022-10-05T09:00:23.892Z,13.73
2022-10-05T09:06:34.071Z,13.98
2022-10-05T09:12:11.921Z,14.26
2022-10-05T09:17:59.867Z,14.43
2022-10-05T09:23:46.828Z,14.63
2022-10-05T09:29:21.876Z,14.84
2022-10-05T09:35:04.865Z,14.98
2022-10-05T09:41:10.875Z,15.14
2022-10-05T09:46:57.896Z,15.38
2022-10-05T09:52:33.916Z,15.54
2022-10-05T09:58:20.979Z,15.61
2022-10-05T10:04:36.897Z,15.85
2022-10-05T10:10:25.918Z,15.95
2022-10-05T10:16:24.983Z,16.01
2022-10-05T10:22:40.913Z,16.17
2022-10-05T10:28:39.037Z,16.39
2022-10-05T10:34:28.906Z,16.53
2022-10-05T10:40:12.932Z,16.65
2022-10-05T10:46:00.968Z,16.82
2022-10-05T10:51:33.071Z,17.02
2022-10-05T10:57:16.962Z,17.22
2022-10-05T11:03:16.987Z,17.38
2022-10-05T11:09:07.950Z,17.45
2022-10-05T11:14:52.022Z,17.56
2022-10-05T11:20:59.029Z,17.77
2022-10-05T11:26:42.938Z,17.97
2022-10-05T11:32:31.955Z,18.08
2022-10-05T11:38:10.942Z,18.26
2022-10-05T11:43:55.975Z,18.45
2022-10-05T11:49:35.066Z,18.54
2022-10-05T11:55:14.963Z,18.64
2022-10-05T12:00:50.034Z,18.62
2022-10-05T12:06:31.011Z,18.68
2022-10-05T12:12:12.959Z,18.77
2022-10-05T12:17:58.003Z,18.89
2022-10-05T12:23:30.004Z,18.83
2022-10-05T12:29:00.998Z,18.85
2022-10-05T12:34:38.006Z,18.92
2022-10-05T12:40:13.055Z,19.12
2022-10-05T12:45:50.107Z,19.02
2022-10-05T12:51:26.000Z,19.20
2022-10-05T12:56:58.022Z,19.34
2022-10-05T13:02:34.990Z,19.35
2022-10-05T13:08:15.038Z,19.57
2022-10-05T13:13:56.035Z,19.54
2022-10-05T13:19:44.042Z,19.75
2022-10-05T13:25:24.111Z,19.98
2022-10-05T13:30:54.061Z,20.01
2022-10-05T13:36:27.026Z,20.22
2022-10-05T13:42:02.048Z,20.07
2022-10-05T13:47:34.092Z,20.02
2022-10-05T13:53:07.102Z,19.84
2022-10-05T13:58:44.103Z,19.77
2022-10-05T14:04:23.119Z,19.91
2022-10-05T14:09:50.090Z,19.93
2022-10-05T14:15:31.060Z,19.96
2022-10-05T14:20:55.055Z,19.99
2022-10-05T14:26:41.279Z,20.02
2022-10-05T14:32:11.371Z,19.88
2022-10-05T14:37:43.101Z,19.86
2022-10-05T14:43:09.081Z,19.68
2022-10-05T14:48:47.096Z,19.71
2022-10-05T14:54:21.170Z,19.74
2022-10-05T15:00:10.128Z,19.79
2022-10-05T15:05:42.512Z,19.60
2022-10-05T15:11:13.090Z,19.55
2022-10-05T15:16:45.163Z,19.35
2022-10-05T15:22:25.116Z,19.01
2022-10-05T15:28:03.501Z,18.99
2022-10-05T15:33:38.133Z,19.18
2022-10-05T15:39:15.113Z,19.39
2022-10-05T15:44:56.099Z,19.52
2022-10-05T15:50:32.109Z,19.31
2022-10-05T15:56:02.143Z,19.00
2022-10-05T16:01:31.207Z,18.82
2022-10-05T16:07:13.145Z,18.58
2022-10-05T16:12:50.181Z,18.62
2022-10-05T16:18:43.145Z,18.50
2022-10-05T16:24:23.132Z,18.33
2022-10-05T16:30:00.159Z,18.16
2022-10-05T16:35:34.184Z,17.95
2022-10-05T16:41:10.266Z,17.69
2022-10-05T16:46:45.294Z,17.53
2022-10-05T16:52:14.166Z,17.32
2022-10-05T16:57:43.166Z,17.16
2022-10-05T17:03:31.150Z,17.10
2022-10-05T17:09:24.155Z,16.98
2022-10-05T17:14:57.616Z,16.81
2022-10-05T17:20:42.967Z,16.67
2022-10-05T17:26:11.201Z,16.58
2022-10-05T17:31:39.220Z,16.53
2022-10-05T17:37:07.175Z,16.41
2022-10-05T17:42:58.373Z,16.37
2022-10-05T17:48:25.576Z,16.29
2022-10-05T17:54:10.205Z,16.27
2022-10-05T17:59:55.223Z,16.24
2022-10-05T18:05:34.225Z,16.25
2022-10-05T18:11:27.231Z,16.19
2022-10-05T18:17:15.254Z,16.17
2022-10-05T18:22:41.231Z,16.12
2022-10-05T18:28:18.296Z,16.16
2022-10-05T18:34:14.282Z,16.18
2022-10-05T18:40:00.557Z,16.22
2022-10-05T18:45:34.730Z,16.22
2022-10-05T18:51:08.255Z,16.25
2022-10-05T18:56:43.250Z,16.26
2022-10-05T19:02:21.344Z,16.26
2022-10-05T19:07:57.235Z,16.27
2022-10-05T19:13:36.225Z,16.27
2022-10-05T19:19:33.507Z,16.23
2022-10-05T19:25:07.262Z,16.25
2022-10-05T19:30:35.286Z,16.21
2022-10-05T19:36:15.277Z,16.22
2022-10-05T19:41:54.288Z,16.22
2022-10-05T19:47:31.271Z,16.21
2022-10-05T19:53:01.283Z,16.20
2022-10-05T19:58:35.286Z,16.16
2022-10-05T20:04:04.839Z,16.14
2022-10-05T20:09:39.274Z,16.12
2022-10-05T20:15:30.342Z,16.05
2022-10-05T20:20:56.824Z,16.00
2022-10-05T20:27:09.656Z,15.90
2022-10-05T20:32:36.294Z,15.82
2022-10-05T20:38:02.325Z,15.78
2022-10-05T20:43:29.343Z,15.70
2022-10-05T20:48:55.465Z,15.66
2022-10-05T20:54:27.709Z,15.66
2022-10-05T21:00:01.359Z,15.67
2022-10-05T21:05:26.354Z,15.64
2022-10-05T21:10:50.308Z,15.65
2022-10-05T21:16:20.355Z,15.61
2022-10-05T21:21:44.354Z,15.61
2022-10-05T21:27:09.331Z,15.62
2022-10-05T21:32:41.930Z,15.60
2022-10-05T21:38:09.547Z,15.54
2022-10-05T21:43:34.349Z,15.56
2022-10-05T21:49:02.337Z,15.50
2022-10-05T21:54:29.358Z,15.49
2022-10-05T21:59:55.393Z,15.51
2022-10-05T22:05:28.435Z,15.51
2022-10-05T22:10:53.375Z,15.51
2022-10-05T22:16:18.807Z,15.61
2022-10-05T22:21:48.407Z,15.54
2022-10-05T22:27:12.374Z,15.53
2022-10-05T22:32:37.398Z,15.52
2022-10-05T22:38:04.373Z,15.49
2022-10-05T22:43:29.700Z,15.44
2022-10-05T22:48:54.363Z,15.38
2022-10-05T22:54:21.373Z,15.77
2022-10-05T22:59:48.401Z,15.85
2022-10-05T23:05:15.386Z,15.80
2022-10-05T23:10:43.868Z,15.68
2022-10-05T23:16:20.468Z,15.60
2022-10-05T23:21:45.423Z,15.59
2022-10-05T23:27:12.408Z,15.53
2022-10-05T23:32:37.439Z,15.45
2022-10-05T23:38:01.811Z,15.34
2022-10-05T23:43:29.430Z,15.21
2022-10-05T23:48:56.418Z,15.00
2022-10-05T23:54:23.425Z,14.98
2022-10-05T23:59:50.399Z,14.92
